Time;durP1;ratioP1;P1;durP2;ratioP2;P2;SDS_P1;SDS_P2;PMS_P1;PMS_P2;Temp;Humidity;BMP_temperature;BMP_pressure;BME280_temperature;BME280_humidity;BME280_pressure;Samples;Min_cycle;Max_cycle;Signal;HPM_P1;HPM_P2
2022/07/29 00:02:31;;;;;;;1.40;0.50;;;;;;;22.77;35.94;101564.66;16141098;19;129884;-61
2022/07/29 00:07:54;;;;;;;3.95;0.85;;;;;;;22.74;36.03;101547.34;16140102;19;129143;-60
2022/07/29 00:13:16;;;;;;;0.88;0.55;;;;;;;22.74;36.01;101547.34;16140691;19;130570;-61
2022/07/29 00:18:39;;;;;;;0.88;0.50;;;;;;;22.74;35.82;101547.34;16135986;19;130945;-61
2022/07/29 00:24:00;;;;;;;0.70;0.50;;;;;;;22.73;35.96;101545.63;16136025;19;130125;-61
2022/07/29 00:29:23;;;;;;;0.68;0.60;;;;;;;22.72;36.08;101534.72;16136360;19;129695;-61
2022/07/29 00:40:35;;;;;;;1.50;0.60;;;;;;;22.69;35.90;101515.75;16144376;19;130443;-61
2022/07/29 00:46:00;;;;;;;2.42;0.50;;;;;;;22.69;35.78;101516.56;16158353;19;129704;-61
2022/07/29 00:51:22;;;;;;;0.50;0.40;;;;;;;22.69;35.83;101510.16;16152407;19;129365;-61
2022/07/29 00:56:44;;;;;;;3.55;0.60;;;;;;;22.69;36.27;101511.00;16157443;19;130177;-61
2022/07/29 01:02:05;;;;;;;0.77;0.45;;;;;;;22.67;36.12;101507.63;16158416;19;132415;-60
2022/07/29 01:07:29;;;;;;;0.95;0.47;;;;;;;22.69;36.10;101496.22;16156241;19;129810;-61
2022/07/29 01:12:54;;;;;;;0.40;0.25;;;;;;;22.69;36.00;101494.25;16158128;19;129612;-61
2022/07/29 01:18:28;;;;;;;0.85;0.50;;;;;;;22.71;36.24;101510.72;16160682;19;129800;-61
2022/07/29 01:24:06;;;;;;;2.03;0.60;;;;;;;22.70;36.18;101501.53;16154752;19;129302;-62
2022/07/29 01:29:38;;;;;;;0.65;0.35;;;;;;;22.71;35.92;101496.78;16155843;19;131148;-61
2022/07/29 01:35:10;;;;;;;0.40;0.25;;;;;;;22.68;35.94;101491.75;16155481;19;129380;-61
2022/07/29 01:40:38;;;;;;;1.30;0.40;;;;;;;22.69;36.50;101488.69;16191685;19;130181;-62
2022/07/29 01:46:10;;;;;;;0.30;0.28;;;;;;;22.67;36.20;101485.31;16214654;19;128943;-61
2022/07/29 01:52:07;;;;;;;0.93;0.40;;;;;;;22.67;36.17;101485.31;16209155;19;129486;-62
2022/07/29 01:57:33;;;;;;;1.88;0.40;;;;;;;22.67;36.04;101478.91;16216801;19;128192;-62
2022/07/29 02:02:57;;;;;;;1.95;0.40;;;;;;;22.66;36.07;101478.03;16216393;19;129294;-62
2022/07/29 02:08:21;;;;;;;1.23;0.30;;;;;;;22.65;36.32;101469.94;16212629;19;128812;-61
2022/07/29 02:13:45;;;;;;;1.75;0.45;;;;;;;22.66;36.10;101466.88;16215581;19;129478;-62
2022/07/29 02:19:09;;;;;;;0.88;0.30;;;;;;;22.63;35.88;101467.44;16215136;19;128203;-61
2022/07/29 02:24:31;;;;;;;0.50;0.38;;;;;;;22.62;36.16;101470.47;16212569;19;128919;-61
2022/07/29 02:29:55;;;;;;;0.60;0.32;;;;;;;22.62;36.24;101471.31;16211128;19;129534;-62
2022/07/29 02:35:19;;;;;;;1.75;0.40;;;;;;;22.62;36.13;101478.81;16211830;19;128916;-63
2022/07/29 02:40:43;;;;;;;2.42;0.30;;;;;;;22.61;36.11;101475.22;16156969;19;130023;-61
2022/07/29 02:46:08;;;;;;;1.25;0.38;;;;;;;22.62;36.17;101453.72;16137666;19;130180;-61
2022/07/29 02:52:00;;;;;;;1.70;0.40;;;;;;;22.63;36.30;101450.69;16139357;19;129886;-60
2022/07/29 02:57:31;;;;;;;3.33;0.47;;;;;;;22.63;36.36;101461.84;16139503;19;130708;-61
2022/07/29 03:02:55;;;;;;;0.80;0.40;;;;;;;22.61;36.18;101475.22;16147110;19;129688;-61
2022/07/29 03:08:20;;;;;;;2.20;0.40;;;;;;;22.62;36.24;101464.88;16146340;19;131547;-61
2022/07/29 03:13:42;;;;;;;3.27;0.53;;;;;;;22.59;36.03;101467.09;16148936;19;130779;-61
2022/07/29 03:19:05;;;;;;;4.30;0.30;;;;;;;22.61;36.34;101468.78;16148613;19;129039;-59
2022/07/29 03:24:32;;;;;;;2.42;0.60;;;;;;;22.59;36.29;101458.72;16146673;19;130443;-61
2022/07/29 03:29:54;;;;;;;1.35;0.40;;;;;;;22.58;36.65;101459.00;16144224;19;130140;-61
2022/07/29 03:35:16;;;;;;;3.10;0.60;;;;;;;22.57;36.45;101451.72;16142213;19;128934;-61
2022/07/29 03:40:51;;;;;;;1.90;0.40;;;;;;;22.59;36.34;101438.38;16144300;19;129263;-60
2022/07/29 03:46:17;;;;;;;3.55;0.57;;;;;;;22.57;36.29;101451.72;16147341;19;128871;-61
2022/07/29 03:51:39;;;;;;;0.93;0.45;;;;;;;22.54;36.50;101444.72;16142084;19;128975;-61
2022/07/29 03:57:02;;;;;;;2.55;0.68;;;;;;;22.55;36.63;101442.78;16139055;19;130374;-61
2022/07/29 04:02:25;;;;;;;3.38;0.63;;;;;;;22.56;36.85;101455.63;16144724;19;129395;-61
2022/07/29 04:07:53;;;;;;;3.00;0.70;;;;;;;22.55;36.50;101448.34;16140291;19;131010;-61
2022/07/29 04:13:15;;;;;;;2.28;0.85;;;;;;;22.54;36.86;101457.81;16143215;19;129526;-61
2022/07/29 04:18:36;;;;;;;3.22;0.63;;;;;;;22.53;36.69;101479.28;16146483;19;129295;-61
2022/07/29 04:23:59;;;;;;;1.85;0.40;;;;;;;22.54;36.53;101482.91;16145282;19;129404;-61
2022/07/29 04:29:20;;;;;;;4.07;0.60;;;;;;;22.54;36.75;101485.69;16143463;19;129883;-61
2022/07/29 04:34:42;;;;;;;1.85;0.50;;;;;;;22.54;36.72;101496.84;16144661;19;130046;-61
2022/07/29 04:40:05;;;;;;;2.10;0.43;;;;;;;22.53;36.96;101492.38;16136701;19;129476;-61
2022/07/29 04:45:27;;;;;;;3.08;0.43;;;;;;;22.52;36.81;101511.06;16137198;19;130505;-61
2022/07/29 04:50:49;;;;;;;1.40;0.40;;;;;;;22.50;37.00;101504.91;16140101;19;130984;-61
2022/07/29 04:56:11;;;;;;;1.63;0.45;;;;;;;22.51;37.04;101516.91;16140279;19;129083;-61
2022/07/29 05:01:33;;;;;;;0.80;0.40;;;;;;;22.50;36.80;101513.25;16142988;19;129182;-61
2022/07/29 05:06:54;;;;;;;1.05;0.47;;;;;;;22.49;36.78;101516.31;16141443;19;129380;-61
2022/07/29 05:12:16;;;;;;;1.50;0.40;;;;;;;22.48;37.00;101512.66;16133994;19;129153;-61
2022/07/29 05:17:38;;;;;;;2.30;0.40;;;;;;;22.49;36.98;101519.09;16140119;19;130573;-61
2022/07/29 05:23:01;;;;;;;1.80;0.60;;;;;;;22.48;36.92;101509.88;16140386;19;129817;-61
2022/07/29 05:28:23;;;;;;;12.60;0.85;;;;;;;22.49;37.02;101510.75;16135968;19;129448;-61
2022/07/29 05:33:45;;;;;;;4.15;0.55;;;;;;;22.50;36.76;101507.69;16139718;19;129457;-61
2022/07/29 05:39:07;;;;;;;3.08;0.80;;;;;;;22.54;36.94;101513.59;16135255;19;129456;-63
2022/07/29 05:44:29;;;;;;;7.90;0.70;;;;;;;22.58;36.92;101526.78;16135211;19;128888;-61
2022/07/29 05:49:50;;;;;;;1.67;0.52;;;;;;;22.64;36.94;101524.03;16136381;19;130009;-61
2022/07/29 05:55:12;;;;;;;8.32;0.90;;;;;;;22.66;36.73;101524.63;16136727;19;129487;-61
2022/07/29 06:00:34;;;;;;;6.95;0.77;;;;;;;22.71;37.07;101531.09;16136261;19;129739;-61
2022/07/29 06:05:56;;;;;;;3.17;0.55;;;;;;;22.76;36.81;101541.47;16134857;19;129039;-61
2022/07/29 06:11:18;;;;;;;4.88;0.75;;;;;;;22.80;36.54;101547.38;16130842;19;129343;-61
2022/07/29 06:16:39;;;;;;;2.15;0.80;;;;;;;22.83;36.55;101555.22;16137624;19;129392;-62
2022/07/29 06:22:01;;;;;;;3.40;1.10;;;;;;;22.85;36.51;101556.66;16146868;19;129245;-61
2022/07/29 06:27:23;;;;;;;3.22;0.60;;;;;;;22.87;36.55;101573.16;16151434;19;132169;-62
2022/07/29 06:32:45;;;;;;;6.18;0.70;;;;;;;22.88;36.82;101558.09;16147654;19;129458;-62
2022/07/29 06:38:07;;;;;;;1.75;0.60;;;;;;;22.87;36.92;101559.19;16144604;19;129467;-62
2022/07/29 06:43:51;;;;;;;2.88;0.52;;;;;;;22.84;36.80;101562.50;16143979;19;130736;-62
2022/07/29 06:49:17;;;;;;;2.97;0.60;;;;;;;22.80;36.86;101559.41;16144733;19;130247;-72
2022/07/29 06:54:39;;;;;;;6.63;0.68;;;;;;;22.80;36.89;101561.31;16148678;19;129334;-71
2022/07/29 07:00:04;;;;;;;3.90;0.70;;;;;;;22.77;36.87;101548.75;16146607;19;129685;-71
2022/07/29 07:05:26;;;;;;;1.60;0.60;;;;;;;22.77;36.88;101559.06;16149014;19;130535;-66
2022/07/29 07:10:50;;;;;;;2.47;0.52;;;;;;;22.77;36.97;101573.03;16140889;19;130703;-66
2022/07/29 07:16:12;;;;;;;4.63;0.60;;;;;;;22.76;36.94;101568.53;16142593;19;130567;-74
2022/07/29 07:21:34;;;;;;;4.18;0.77;;;;;;;22.74;37.16;101575.22;16146915;19;130254;-62
2022/07/29 07:26:56;;;;;;;2.17;0.68;;;;;;;22.73;36.93;101581.91;16146559;19;128870;-62
2022/07/29 07:32:18;;;;;;;4.47;0.63;;;;;;;22.72;37.02;101583.00;16139909;19;129460;-62
2022/07/29 07:37:40;;;;;;;2.72;0.60;;;;;;;22.73;37.38;101583.81;16141890;19;129118;-59
2022/07/29 07:43:02;;;;;;;2.55;0.50;;;;;;;22.71;37.45;101578.53;16143910;19;129633;-59
2022/07/29 07:48:24;;;;;;;1.88;0.50;;;;;;;22.71;37.20;101581.31;16144783;19;129370;-59
2022/07/29 07:53:50;;;;;;;2.08;0.47;;;;;;;22.71;37.25;101581.31;16140858;19;129702;-59
2022/07/29 07:59:11;;;;;;;2.35;0.60;;;;;;;22.70;37.22;101562.06;16145510;19;128970;-59
2022/07/29 08:04:33;;;;;;;1.00;0.50;;;;;;;22.70;37.12;101570.44;16145110;19;131920;-59
2022/07/29 08:09:55;;;;;;;0.52;0.40;;;;;;;22.69;37.26;101577.09;16143604;19;130017;-59
2022/07/29 08:15:17;;;;;;;1.38;0.50;;;;;;;22.69;37.52;101574.31;16143913;19;129130;-59
2022/07/29 08:20:39;;;;;;;2.83;0.82;;;;;;;22.69;37.36;101583.50;16140993;19;129510;-59
2022/07/29 08:26:01;;;;;;;1.15;0.47;;;;;;;22.68;37.40;101581.00;16144786;19;130781;-59
2022/07/29 08:31:23;;;;;;;0.40;0.40;;;;;;;22.67;37.38;101590.47;16141442;19;129342;-59
2022/07/29 08:36:45;;;;;;;0.73;0.40;;;;;;;22.68;37.43;101595.75;16144077;19;129078;-60
2022/07/29 08:42:11;;;;;;;1.73;0.60;;;;;;;22.68;37.50;101592.16;16141994;19;131061;-59
2022/07/29 08:47:36;;;;;;;1.63;0.50;;;;;;;22.68;37.40;101592.16;16139384;19;129324;-59
2022/07/29 08:52:58;;;;;;;0.93;0.50;;;;;;;22.68;37.53;101587.41;16138200;19;130528;-59
2022/07/29 08:58:21;;;;;;;0.82;0.30;;;;;;;22.68;37.50;101595.75;16145026;19;129687;-59
2022/07/29 09:03:46;;;;;;;1.30;0.43;;;;;;;22.68;37.81;101598.56;16143304;19;129588;-59
2022/07/29 09:09:09;;;;;;;0.85;0.40;;;;;;;22.68;37.73;101598.56;16142774;19;129048;-59
2022/07/29 09:14:30;;;;;;;4.53;0.45;;;;;;;22.68;37.91;101592.16;16141432;19;129420;-59
2022/07/29 09:20:08;;;;;;;0.80;0.40;;;;;;;22.70;37.31;101587.16;16140136;19;130061;-59
2022/07/29 09:25:37;;;;;;;3.03;0.60;;;;;;;22.70;37.65;101590.78;16136450;19;129591;-59
2022/07/29 09:30:59;;;;;;;1.13;0.32;;;;;;;22.68;37.53;101587.41;16138559;19;129796;-59
2022/07/29 09:36:21;;;;;;;1.20;0.35;;;;;;;22.69;37.61;101586.31;16140249;19;130074;-59
2022/07/29 09:41:54;;;;;;;1.77;0.52;;;;;;;22.69;37.75;101589.09;16131977;19;128841;-59
2022/07/29 09:47:17;;;;;;;0.90;0.40;;;;;;;22.67;37.77;101591.28;16138979;19;132490;-59
2022/07/29 09:52:50;;;;;;;2.28;0.35;;;;;;;22.69;37.68;101589.09;16135318;19;129573;-59
2022/07/29 09:58:20;;;;;;;1.00;0.30;;;;;;;22.69;37.99;101577.94;16136571;19;129468;-59
2022/07/29 10:03:52;;;;;;;0.40;0.40;;;;;;;22.70;37.69;101589.94;16133813;19;129608;-59
2022/07/29 10:09:15;;;;;;;0.50;0.40;;;;;;;22.69;37.54;101582.69;16136895;19;130120;-59
2022/07/29 10:14:42;;;;;;;1.40;0.35;;;;;;;22.70;38.06;101590.78;16137618;19;129481;-59
2022/07/29 10:20:05;;;;;;;0.70;0.47;;;;;;;22.70;37.68;101596.34;16132550;19;132184;-59
2022/07/29 10:25:33;;;;;;;0.63;0.50;;;;;;;22.70;37.75;101590.78;16132354;19;130433;-59
2022/07/29 10:31:01;;;;;;;1.23;0.50;;;;;;;22.71;37.55;101586.03;16130988;19;130986;-58
2022/07/29 10:36:42;;;;;;;1.40;0.50;;;;;;;22.72;37.81;101583.00;16137517;19;131330;-59
2022/07/29 10:42:13;;;;;;;1.05;0.50;;;;;;;22.71;37.42;101581.31;16131297;19;131497;-59
2022/07/29 10:47:41;;;;;;;0.50;0.50;;;;;;;22.71;37.42;101575.72;16135308;19;131667;-59
2022/07/29 10:53:03;;;;;;;0.65;0.47;;;;;;;22.71;37.41;101574.88;16130315;19;129170;-59
2022/07/29 10:58:29;;;;;;;1.25;0.60;;;;;;;22.72;37.54;101571.84;16134095;19;129611;-59
2022/07/29 11:03:55;;;;;;;2.60;0.60;;;;;;;22.72;37.37;101566.25;16134749;19;129086;-59
2022/07/29 11:09:19;;;;;;;0.60;0.50;;;;;;;22.73;37.27;101579.13;16137341;19;129391;-59
2022/07/29 11:14:59;;;;;;;1.48;0.52;;;;;;;22.73;37.63;101576.31;16148920;19;129596;-59
2022/07/29 11:20:30;;;;;;;1.33;0.50;;;;;;;22.74;37.43;101575.22;16147372;19;129284;-59
2022/07/29 11:26:11;;;;;;;0.50;0.40;;;;;;;22.74;37.35;101572.44;16147087;19;128814;-59
2022/07/29 11:31:33;;;;;;;1.25;0.60;;;;;;;22.72;37.37;101580.22;16145123;19;129235;-59
2022/07/29 11:37:07;;;;;;;1.38;0.70;;;;;;;22.75;37.25;101573.25;16147645;19;129682;-59
2022/07/29 11:42:28;;;;;;;2.10;0.43;;;;;;;22.74;37.28;101575.22;16141024;19;129288;-59
2022/07/29 11:47:59;;;;;;;1.92;0.70;;;;;;;22.73;37.11;101579.13;16147682;19;129549;-59
2022/07/29 11:53:47;;;;;;;0.60;0.40;;;;;;;22.77;37.15;101581.38;16142821;19;129053;-59
2022/07/29 11:59:14;;;;;;;1.45;0.70;;;;;;;22.76;36.98;101568.53;16145030;19;129633;-59
2022/07/29 12:04:52;;;;;;;2.53;0.57;;;;;;;22.79;36.96;101570.78;16142808;19;129286;-59
2022/07/29 12:10:15;;;;;;;1.70;0.60;;;;;;;22.76;36.95;101571.34;16144509;19;129528;-59
2022/07/29 12:15:54;;;;;;;3.42;0.70;;;;;;;22.81;36.99;101585.31;16143498;19;130307;-60
2022/07/29 12:21:20;;;;;;;1.30;0.60;;;;;;;22.82;37.09;101576.72;16143747;19;132781;-60
2022/07/29 12:26:53;;;;;;;1.48;0.63;;;;;;;22.87;36.97;101578.72;16141887;19;129825;-59
2022/07/29 12:32:15;;;;;;;0.85;0.40;;;;;;;22.87;37.25;101573.97;16139914;19;130454;-60
2022/07/29 12:37:41;;;;;;;3.97;0.60;;;;;;;22.89;36.91;101587.69;16140609;19;132644;-60
2022/07/29 12:43:11;;;;;;;2.78;0.77;;;;;;;22.92;36.81;101581.59;16136291;19;129795;-62
2022/07/29 12:48:38;;;;;;;2.85;0.88;;;;;;;22.92;36.50;101586.34;16139694;19;130113;-62
2022/07/29 12:54:10;;;;;;;1.90;0.50;;;;;;;22.95;36.69;101583.88;16137015;19;130302;-62
2022/07/29 12:59:32;;;;;;;1.10;0.47;;;;;;;22.96;37.06;101582.78;16139816;19;128965;-62
2022/07/29 13:05:05;;;;;;;3.25;0.60;;;;;;;22.99;36.63;101579.47;16140620;19;130568;-62
2022/07/29 13:10:29;;;;;;;1.63;0.63;;;;;;;23.01;36.77;101579.19;16139619;19;129294;-62
2022/07/29 13:16:07;;;;;;;1.55;0.60;;;;;;;23.02;36.49;101580.88;16140299;19;129207;-62
2022/07/29 13:21:29;;;;;;;3.05;0.70;;;;;;;23.00;36.35;101583.94;16141245;19;129099;-62
2022/07/29 13:26:51;;;;;;;1.85;0.63;;;;;;;23.01;36.51;101579.19;16137541;19;128921;-61
2022/07/29 13:32:13;;;;;;;2.08;0.68;;;;;;;23.01;36.58;101574.47;16135616;19;129318;-62
2022/07/29 13:37:38;;;;;;;2.10;0.70;;;;;;;23.02;36.71;101581.72;16139893;19;129566;-62
2022/07/29 13:43:00;;;;;;;3.30;0.60;;;;;;;23.02;36.61;101576.13;16135089;19;129830;-62
2022/07/29 13:48:22;;;;;;;3.70;1.02;;;;;;;23.01;36.71;101574.47;16136613;19;130271;-62
2022/07/29 13:53:43;;;;;;;1.73;0.70;;;;;;;23.03;36.52;101569.44;16130292;19;129565;-62
2022/07/29 13:59:05;;;;;;;0.77;0.50;;;;;;;23.04;36.58;101568.34;16131188;19;129704;-62
2022/07/29 14:04:27;;;;;;;3.45;0.68;;;;;;;23.04;36.85;101581.47;16136197;19;129700;-62
2022/07/29 14:09:50;;;;;;;3.42;0.80;;;;;;;23.08;36.79;101579.81;16134277;19;130345;-62
2022/07/29 14:15:11;;;;;;;1.38;0.70;;;;;;;23.09;36.32;101573.16;16128840;19;129622;-62
2022/07/29 14:20:33;;;;;;;4.28;0.75;;;;;;;23.10;36.33;101565.63;16137405;19;130002;-62
2022/07/29 14:25:55;;;;;;;9.25;0.82;;;;;;;23.13;36.46;101570.69;16134431;19;129103;-62
2022/07/29 14:31:17;;;;;;;3.38;0.80;;;;;;;23.14;36.53;101566.81;16134217;19;129965;-62
2022/07/29 14:36:39;;;;;;;12.73;5.75;;;;;;;23.19;36.57;101566.84;16130042;19;129852;-62
2022/07/29 14:42:01;;;;;;;30.25;16.58;;;;;;;23.26;36.64;101575.88;16132813;19;129354;-62
2022/07/29 14:47:23;;;;;;;74.50;38.90;;;;;;;23.32;36.61;101579.56;16148537;19;129694;-62
2022/07/29 14:52:44;;;;;;;71.47;42.35;;;;;;;23.30;35.90;101570.59;16141100;19;129198;-61
2022/07/29 14:58:06;;;;;;;38.40;22.90;;;;;;;23.30;35.91;101576.19;16147610;19;129794;-62
2022/07/29 15:03:35;;;;;;;29.65;17.13;;;;;;;23.31;35.88;101583.47;16146582;19;130160;-62
2022/07/29 15:08:56;;;;;;;30.75;10.27;;;;;;;23.32;35.64;101580.38;16147319;19;131391;-63
2022/07/29 15:14:18;;;;;;;19.98;7.60;;;;;;;23.33;35.67;101576.50;16142985;19;129889;-62
2022/07/29 15:19:40;;;;;;;10.40;5.60;;;;;;;23.38;35.53;101580.47;16149739;19;132872;-63
2022/07/29 15:25:05;;;;;;;13.82;4.60;;;;;;;23.40;35.24;101581.00;16149140;19;130479;-63
2022/07/29 15:30:29;;;;;;;9.95;3.13;;;;;;;23.43;35.10;101575.78;16143838;19;129736;-62
2022/07/29 15:35:55;;;;;;;6.10;2.55;;;;;;;23.46;34.97;101574.38;16142940;19;129048;-62
2022/07/29 15:41:17;;;;;;;8.27;2.08;;;;;;;23.48;34.71;101572.19;16141560;19;129228;-62
2022/07/29 15:52:21;;;;;;;7.57;1.75;;;;;;;23.53;34.74;101572.22;16142900;19;129902;-62
2022/07/29 15:57:46;;;;;;;3.88;1.55;;;;;;;23.55;34.81;101577.56;16145769;19;131851;-63
2022/07/29 16:03:08;;;;;;;5.38;1.58;;;;;;;23.57;34.58;101573.38;16145910;19;129300;-63
2022/07/29 16:08:30;;;;;;;5.30;1.55;;;;;;;23.60;34.29;101569.25;16141652;19;130533;-63
2022/07/29 16:13:52;;;;;;;9.07;1.50;;;;;;;23.61;34.71;101566.19;16139667;19;129557;-62
2022/07/29 16:19:14;;;;;;;4.30;1.15;;;;;;;23.62;34.53;101570.69;16145267;19;130085;-62
2022/07/29 16:24:36;;;;;;;4.28;1.10;;;;;;;23.62;34.87;101561.44;16143480;19;131273;-62
2022/07/29 16:29:57;;;;;;;6.18;1.30;;;;;;;23.60;34.44;101561.72;16142461;19;130037;-62
2022/07/29 16:35:22;;;;;;;8.97;1.23;;;;;;;23.58;34.69;101565.81;16139012;19;129430;-62
2022/07/29 16:40:59;;;;;;;5.93;1.40;;;;;;;23.57;34.50;101562.22;16139192;19;129031;-62
2022/07/29 16:46:21;;;;;;;3.85;0.90;;;;;;;23.58;34.95;101555.53;16144021;19;129352;-62
2022/07/29 16:51:49;;;;;;;2.72;1.00;;;;;;;23.59;34.84;101562.81;16141978;19;128993;-62
2022/07/29 16:57:11;;;;;;;6.40;1.77;;;;;;;23.57;35.05;101564.16;16137021;19;129837;-62
2022/07/29 17:02:32;;;;;;;6.75;1.05;;;;;;;23.59;34.92;101584.31;16141200;19;130022;-63
2022/07/29 17:07:56;;;;;;;7.07;1.40;;;;;;;23.60;34.67;101574.81;16137267;19;128957;-61
2022/07/29 17:13:19;;;;;;;2.55;1.10;;;;;;;23.58;34.82;101577.91;16135296;19;129285;-62
2022/07/29 17:18:41;;;;;;;2.95;1.17;;;;;;;23.59;34.96;101590.75;16139085;19;129145;-62
2022/07/29 17:24:03;;;;;;;3.10;0.95;;;;;;;23.60;35.45;101580.41;16139046;19;128989;-62
2022/07/29 17:29:26;;;;;;;4.78;0.90;;;;;;;23.57;35.53;101587.34;16137835;19;131481;-62
2022/07/29 17:34:48;;;;;;;3.65;1.00;;;;;;;23.54;35.66;101589.81;16133724;19;129541;-62
2022/07/29 17:40:10;;;;;;;5.47;1.20;;;;;;;23.52;35.42;101584.50;16134897;19;130451;-62
2022/07/29 17:45:32;;;;;;;4.20;1.42;;;;;;;23.52;35.34;101595.66;16133409;19;129755;-63
2022/07/29 17:51:10;;;;;;;5.82;1.20;;;;;;;23.50;35.79;101597.91;16132647;19;129432;-63
2022/07/29 17:56:32;;;;;;;4.63;1.05;;;;;;;23.46;35.65;101597.56;16137088;19;129180;-62
2022/07/29 18:01:54;;;;;;;2.50;1.20;;;;;;;23.43;35.52;101594.47;16137451;19;129570;-62
2022/07/29 18:07:16;;;;;;;6.32;1.38;;;;;;;23.41;35.74;101600.31;16135847;19;130096;-63
2022/07/29 18:12:38;;;;;;;4.55;1.10;;;;;;;23.41;35.86;101600.31;16134278;19;128905;-63
2022/07/29 18:17:59;;;;;;;3.13;1.17;;;;;;;23.39;35.79;101602.53;16146011;19;128908;-62
2022/07/29 18:23:21;;;;;;;3.95;1.17;;;;;;;23.38;35.53;101603.63;16148231;19;128977;-63
2022/07/29 18:28:43;;;;;;;2.95;0.93;;;;;;;23.37;35.58;101615.06;16146939;19;130062;-62
2022/07/29 18:34:05;;;;;;;3.53;0.90;;;;;;;23.35;36.06;101618.97;16145812;19;129291;-63
2022/07/29 18:39:26;;;;;;;3.58;0.90;;;;;;;23.34;36.06;101619.22;16147827;19;128966;-62
2022/07/29 18:44:48;;;;;;;6.35;1.38;;;;;;;23.35;36.36;101620.91;16136850;19;129921;-62
2022/07/29 18:50:10;;;;;;;9.30;1.55;;;;;;;23.40;36.53;101625.69;16143475;19;129373;-62
2022/07/29 18:55:32;;;;;;;5.43;1.17;;;;;;;23.43;37.06;101630.75;16143788;19;129399;-63
2022/07/29 19:00:56;;;;;;;3.35;1.23;;;;;;;23.44;36.72;101638.03;16148888;19;129513;-62
2022/07/29 19:06:18;;;;;;;6.28;1.20;;;;;;;23.45;37.19;101646.13;16144183;19;130011;-62
2022/07/29 19:11:46;;;;;;;6.07;1.23;;;;;;;23.47;37.28;101659.84;16145202;19;129657;-62
2022/07/29 19:17:08;;;;;;;7.07;1.17;;;;;;;23.46;37.37;101661.78;16147739;19;130920;-63
2022/07/29 19:22:30;;;;;;;15.75;1.50;;;;;;;23.46;37.60;101666.53;16145752;19;129250;-62
2022/07/29 19:27:51;;;;;;;7.78;1.38;;;;;;;23.46;37.30;101669.34;16143544;19;129224;-62
2022/07/29 19:33:16;;;;;;;12.27;1.50;;;;;;;23.46;37.35;101677.72;16141841;19;130207;-62
2022/07/29 19:38:38;;;;;;;9.10;1.17;;;;;;;23.45;37.31;101688.03;16146501;19;129369;-62
2022/07/29 19:44:00;;;;;;;4.55;1.10;;;;;;;23.47;37.63;101701.75;16141464;19;130475;-62
2022/07/29 19:49:22;;;;;;;4.03;0.85;;;;;;;23.47;37.30;101702.56;16139392;19;129019;-62
2022/07/29 19:54:43;;;;;;;11.07;1.17;;;;;;;23.47;37.58;101710.13;16142839;19;129555;-62
2022/07/29 20:00:06;;;;;;;16.52;1.33;;;;;;;23.49;37.64;101724.66;16144962;19;129869;-62
2022/07/29 20:05:31;;;;;;;4.47;1.25;;;;;;;23.48;37.82;101734.16;16144563;19;128919;-62
2022/07/29 20:10:53;;;;;;;8.25;1.30;;;;;;;23.47;37.71;101738.88;16143880;19;129463;-62
2022/07/29 20:16:15;;;;;;;15.45;1.58;;;;;;;23.48;37.96;101743.34;16135130;19;130229;-62
2022/07/29 20:21:37;;;;;;;21.85;1.38;;;;;;;23.48;37.89;101742.53;16142771;19;129831;-62
2022/07/29 20:26:59;;;;;;;19.73;1.88;;;;;;;23.49;38.02;101747.00;16137832;19;128896;-62
2022/07/29 20:32:22;;;;;;;17.23;1.73;;;;;;;23.46;38.29;101739.97;16140666;19;129618;-62
2022/07/29 20:37:44;;;;;;;14.98;1.52;;;;;;;23.44;37.80;101746.94;16137066;19;129858;-61
2022/07/29 20:43:17;;;;;;;9.90;1.20;;;;;;;23.38;38.02;101748.81;16136500;19;130363;-62
2022/07/29 20:48:39;;;;;;;8.10;1.15;;;;;;;23.32;38.12;101747.91;16141336;19;129662;-62
2022/07/29 20:54:02;;;;;;;8.48;1.02;;;;;;;23.30;37.85;101750.09;16138179;19;129053;-62
2022/07/29 20:59:24;;;;;;;6.78;0.80;;;;;;;23.28;38.31;101752.31;16140097;19;129857;-62
2022/07/29 21:04:45;;;;;;;5.93;1.20;;;;;;;23.25;38.18;101746.41;16139140;19;129693;-62
2022/07/29 21:10:07;;;;;;;5.45;1.10;;;;;;;23.22;38.29;101744.97;16141277;19;129977;-62
2022/07/29 21:15:29;;;;;;;3.47;1.08;;;;;;;23.23;38.23;101760.63;16135674;19;129596;-62
2022/07/29 21:20:53;;;;;;;7.70;1.08;;;;;;;23.20;38.42;101755.56;16140581;19;130322;-62
2022/07/29 21:26:14;;;;;;;3.83;0.90;;;;;;;23.21;37.78;101762.84;16138035;19;128874;-62
2022/07/29 21:31:36;;;;;;;3.63;0.80;;;;;;;23.19;38.13;101768.69;16141650;19;129375;-62
2022/07/29 21:36:58;;;;;;;3.40;0.77;;;;;;;23.19;38.02;101762.25;16133578;19;129461;-62
2022/07/29 21:42:20;;;;;;;3.13;0.75;;;;;;;23.18;38.25;101763.34;16137007;19;130431;-62
2022/07/29 21:47:42;;;;;;;2.00;0.80;;;;;;;23.18;38.10;101749.38;16138109;19;129056;-62
2022/07/29 21:53:04;;;;;;;2.97;0.70;;;;;;;23.16;37.74;101758.03;16135388;19;129942;-62
2022/07/29 21:58:26;;;;;;;1.75;0.77;;;;;;;23.16;38.20;101749.66;16136795;19;129255;-62
2022/07/29 22:03:48;;;;;;;1.20;0.70;;;;;;;23.15;38.47;101752.69;16137599;19;129232;-62
2022/07/29 22:09:10;;;;;;;4.57;0.82;;;;;;;23.14;37.98;101759.41;16137277;19;129197;-62
2022/07/29 22:14:34;;;;;;;2.13;0.70;;;;;;;23.14;38.26;101759.41;16133663;19;129134;-62
2022/07/29 22:19:57;;;;;;;1.67;0.50;;;;;;;23.13;38.20;101771.66;16135433;19;133945;-62
2022/07/29 22:25:19;;;;;;;2.80;0.60;;;;;;;23.13;38.41;101777.25;16134095;19;129922;-61
2022/07/29 22:30:41;;;;;;;1.50;0.57;;;;;;;23.13;38.34;101782.81;16132642;19;129473;-62
2022/07/29 22:36:03;;;;;;;1.65;0.65;;;;;;;23.12;38.41;101776.38;16130395;19;129779;-61
2022/07/29 22:41:25;;;;;;;1.75;0.63;;;;;;;23.12;38.44;101789.50;16133542;19;129153;-62
2022/07/29 22:46:47;;;;;;;3.78;0.88;;;;;;;23.11;38.22;101788.63;16133619;19;130098;-62
2022/07/29 22:52:09;;;;;;;3.25;0.80;;;;;;;23.11;38.74;101790.59;16134398;19;129411;-62
2022/07/29 22:57:31;;;;;;;0.98;0.50;;;;;;;23.11;38.07;101785.00;16128255;19;130395;-62
2022/07/29 23:02:53;;;;;;;0.93;0.50;;;;;;;23.09;38.44;101788.03;16131775;19;129096;-61
2022/07/29 23:08:14;;;;;;;1.65;0.50;;;;;;;23.09;38.58;101792.78;16146976;19;132926;-62
2022/07/29 23:13:36;;;;;;;0.85;0.40;;;;;;;23.08;38.66;101797.50;16144388;19;129957;-62
2022/07/29 23:18:58;;;;;;;1.45;0.60;;;;;;;23.07;38.70;101790.28;16148352;19;131308;-62
2022/07/29 23:24:20;;;;;;;1.13;0.50;;;;;;;23.08;38.38;101791.09;16147807;19;129185;-61
2022/07/29 23:29:42;;;;;;;2.13;0.55;;;;;;;23.07;38.19;101793.06;16147273;19;130333;-61
2022/07/29 23:35:05;;;;;;;1.35;0.50;;;;;;;23.08;38.57;101789.13;16142655;19;130155;-62
2022/07/29 23:40:27;;;;;;;1.77;0.70;;;;;;;23.08;38.55;101779.94;16146036;19;129620;-61
2022/07/29 23:45:49;;;;;;;0.60;0.50;;;;;;;23.08;38.63;101779.94;16139722;19;128927;-62
2022/07/29 23:51:14;;;;;;;3.80;0.73;;;;;;;23.07;38.49;101778.25;16145332;19;129886;-62
2022/07/29 23:56:35;;;;;;;1.33;0.57;;;;;;;23.07;38.66;101783.81;16139147;19;130866;-63
